Time;durP1;ratioP1;P1;durP2;ratioP2;P2;SDS_P1;SDS_P2;PMS_P1;PMS_P2;Temp;Humidity;BMP_temperature;BMP_pressure;BME280_temperature;BME280_humidity;BME280_pressure;Samples;Min_cycle;Max_cycle;Signal;HPM_P1;HPM_P2
2022/09/20 20:15:36;;;;;;;;;;;;;;;6.56;100.00;98280.31;5098008;27;19942;-42
2022/09/20 20:18:07;;;;;;;;;;;;;;;6.48;100.00;98281.56;5076212;28;19971;-45
2022/09/20 20:20:38;;;;;;;;;;;;;;;6.45;100.00;98286.91;5078814;28;19925;-41
2022/09/20 20:23:24;;;;;;;;;;;;;;;6.33;100.00;98282.22;5088345;28;19931;-41
2022/09/20 20:25:58;;;;;;;;;;;;;;;6.35;100.00;98283.88;5086391;28;19932;-41
2022/09/20 20:28:25;;;;;;;;;;;;;;;6.39;100.00;98279.38;5090467;28;19928;-43
2022/09/20 20:30:54;;;;;;;;;;;;;;;6.33;100.00;98284.84;5092510;28;19928;-43
2022/09/20 20:33:21;;;;;;;;;;;;;;;6.27;100.00;98287.72;5075263;28;19938;-43
2022/09/20 20:35:53;;;;;;;;;;;;;;;6.27;100.00;98283.34;5093527;28;20382;-41
2022/09/20 20:38:21;;;;;;;;;;;;;;;6.31;100.00;98290.13;5093674;28;19932;-45
2022/09/20 20:40:48;;;;;;;;;;;;;;;6.36;100.00;98290.78;5092079;28;20093;-41
2022/09/20 20:43:15;;;;;;;;;;;;;;;6.18;100.00;98291.56;5090782;28;19924;-41
2022/09/20 20:45:49;;;;;;;;;;;;;;;6.25;100.00;98294.78;5095238;28;20051;-44
2022/09/20 20:48:17;;;;;;;;;;;;;;;6.10;100.00;98298.88;5092419;28;20576;-45
2022/09/20 20:50:44;;;;;;;;;;;;;;;6.12;100.00;98299.69;5096696;28;19929;-43
2022/09/20 20:53:11;;;;;;;;;;;;;;;6.08;100.00;98315.53;5096868;28;19928;-45
2022/09/20 20:55:40;;;;;;;;;;;;;;;6.19;100.00;98313.31;5091127;28;19932;-45
2022/09/20 20:58:08;;;;;;;;;;;;;;;6.18;100.00;98311.63;5100704;28;19924;-48
2022/09/20 21:00:36;;;;;;;;;;;;;;;6.27;100.00;98309.47;5092618;28;20003;-48
2022/09/20 21:03:03;;;;;;;;;;;;;;;6.34;100.00;98304.81;5091368;28;20317;-48
2022/09/20 21:05:32;;;;;;;;;;;;;;;6.32;100.00;98310.13;5095766;28;19924;-48
2022/09/20 21:07:59;;;;;;;;;;;;;;;6.35;100.00;98307.38;5093448;28;20011;-51
2022/09/20 21:10:26;;;;;;;;;;;;;;;6.56;100.00;98306.47;5088375;28;19935;-52
2022/09/20 21:12:54;;;;;;;;;;;;;;;6.64;100.00;98311.34;5086700;28;19924;-48
2022/09/20 21:15:21;;;;;;;;;;;;;;;6.62;100.00;98310.56;5085467;28;19924;-48
2022/09/20 21:17:50;;;;;;;;;;;;;;;6.65;100.00;98311.28;5087285;28;20379;-50
2022/09/20 21:20:17;;;;;;;;;;;;;;;6.69;100.00;98307.59;5100321;28;19924;-49
2022/09/20 21:22:46;;;;;;;;;;;;;;;6.67;100.00;98317.28;5104016;28;19990;-47
2022/09/20 21:25:14;;;;;;;;;;;;;;;6.63;100.00;98315.72;5098365;28;19931;-48
2022/09/20 21:27:41;;;;;;;;;;;;;;;6.51;100.00;98308.41;5081281;28;20033;-48
2022/09/20 21:30:09;;;;;;;;;;;;;;;6.59;100.00;98321.16;5070021;28;19928;-48
2022/09/20 21:32:36;;;;;;;;;;;;;;;6.53;100.00;98311.81;5070173;28;20038;-48
2022/09/20 21:35:03;;;;;;;;;;;;;;;6.49;100.00;98315.47;5069130;28;20334;-48
2022/09/20 21:37:30;;;;;;;;;;;;;;;6.48;100.00;98311.19;5071215;28;20349;-48
2022/09/20 21:39:59;;;;;;;;;;;;;;;6.50;100.00;98318.91;5070625;28;19924;-47
2022/09/20 21:42:27;;;;;;;;;;;;;;;6.40;100.00;98315.03;5068611;28;20304;-53
2022/09/20 21:44:56;;;;;;;;;;;;;;;6.42;100.00;98316.66;5069204;28;20013;-49
2022/09/20 21:47:24;;;;;;;;;;;;;;;6.38;100.00;98309.88;5070261;28;20340;-48
2022/09/20 21:49:52;;;;;;;;;;;;;;;6.28;100.00;98311.16;5068592;28;19929;-48
2022/09/20 21:52:20;;;;;;;;;;;;;;;6.22;100.00;98321.03;5069027;28;19960;-49
2022/09/20 21:54:49;;;;;;;;;;;;;;;6.25;100.00;98320.91;5070597;28;19969;-51
2022/09/20 21:57:18;;;;;;;;;;;;;;;6.25;100.00;98313.91;5081420;28;19956;-47
2022/09/20 21:59:46;;;;;;;;;;;;;;;6.13;100.00;98316.19;5081623;28;19959;-47
2022/09/20 22:02:14;;;;;;;;;;;;;;;6.13;100.00;98322.25;5070619;28;19925;-47
2022/09/20 22:04:41;;;;;;;;;;;;;;;6.14;100.00;98323.13;5070281;28;20059;-47
2022/09/20 22:07:08;;;;;;;;;;;;;;;6.14;100.00;98333.56;5069079;28;20031;-48
2022/09/20 22:09:35;;;;;;;;;;;;;;;6.13;100.00;98326.63;5070608;28;19929;-47
2022/09/20 22:12:03;;;;;;;;;;;;;;;6.16;100.00;98335.19;5070409;28;19931;-48
2022/09/20 22:14:31;;;;;;;;;;;;;;;6.08;100.00;98332.06;5055333;28;20410;-53
2022/09/20 22:16:59;;;;;;;;;;;;;;;6.22;100.00;98326.25;5049932;28;20034;-47
2022/09/20 22:19:26;;;;;;;;;;;;;;;6.08;100.00;98332.06;5050065;28;20384;-47
2022/09/20 22:21:53;;;;;;;;;;;;;;;6.14;100.00;98336.19;5049529;28;19926;-47
2022/09/20 22:24:20;;;;;;;;;;;;;;;6.04;100.00;98327.03;5048101;28;19972;-47
2022/09/20 22:26:49;;;;;;;;;;;;;;;6.08;100.00;98334.69;5050051;28;19925;-47
2022/09/20 22:29:16;;;;;;;;;;;;;;;6.02;100.00;98328.84;5050139;28;19960;-47
2022/09/20 22:31:46;;;;;;;;;;;;;;;5.94;100.00;98337.00;5048229;28;20016;-48
2022/09/20 22:34:14;;;;;;;;;;;;;;;5.82;100.00;98329.66;5048872;28;19931;-46
2022/09/20 22:36:41;;;;;;;;;;;;;;;5.83;100.00;98328.72;5049014;28;19932;-47
2022/09/20 22:39:09;;;;;;;;;;;;;;;5.80;100.00;98321.00;5048656;28;20375;-47
2022/09/20 22:41:36;;;;;;;;;;;;;;;5.87;100.00;98327.69;5049305;28;20031;-47
2022/09/20 22:44:04;;;;;;;;;;;;;;;5.84;100.00;98327.81;5049661;28;19931;-47
2022/09/20 22:46:31;;;;;;;;;;;;;;;5.73;100.00;98332.59;5050304;28;20293;-47
2022/09/20 22:48:59;;;;;;;;;;;;;;;5.78;100.00;98342.88;5048056;28;19925;-47
2022/09/20 22:51:27;;;;;;;;;;;;;;;5.80;100.00;98338.41;5049650;28;19929;-47
2022/09/20 22:53:55;;;;;;;;;;;;;;;5.79;100.00;98334.97;5049457;28;19925;-47
2022/09/20 22:56:23;;;;;;;;;;;;;;;5.69;100.00;98338.03;5047491;28;19936;-47
2022/09/20 22:58:51;;;;;;;;;;;;;;;5.73;100.00;98331.78;5049238;28;19983;-47
2022/09/20 23:01:20;;;;;;;;;;;;;;;5.64;100.00;98342.56;5049568;28;20019;-48
2022/09/20 23:03:48;;;;;;;;;;;;;;;5.69;100.00;98341.47;5048182;28;19925;-50
2022/09/20 23:06:19;;;;;;;;;;;;;;;5.56;100.00;98336.81;5050017;28;20020;-46
2022/09/20 23:08:47;;;;;;;;;;;;;;;5.61;100.00;98338.31;5047635;28;19932;-48
2022/09/20 23:11:15;;;;;;;;;;;;;;;5.61;100.00;98338.31;5048027;28;19925;-50
2022/09/20 23:13:42;;;;;;;;;;;;;;;5.67;100.00;98345.06;5062872;28;19946;-46
2022/09/20 23:16:13;;;;;;;;;;;;;;;5.64;100.00;98340.81;5094924;28;19924;-48
2022/09/20 23:18:41;;;;;;;;;;;;;;;5.62;100.00;98342.63;5109310;28;20412;-54
2022/09/20 23:21:08;;;;;;;;;;;;;;;5.60;100.00;98346.22;5098344;28;19934;-47
2022/09/20 23:23:37;;;;;;;;;;;;;;;5.85;100.00;98347.78;5089284;28;19924;-47
2022/09/20 23:26:07;;;;;;;;;;;;;;;5.96;100.00;98350.81;5070040;28;19924;-46
2022/09/20 23:28:34;;;;;;;;;;;;;;;5.87;100.00;98348.56;5087203;28;19924;-46
2022/09/20 23:31:02;;;;;;;;;;;;;;;5.87;100.00;98351.19;5087838;28;19932;-47
2022/09/20 23:33:29;;;;;;;;;;;;;;;5.84;100.00;98359.13;5089470;28;19924;-47
2022/09/20 23:35:57;;;;;;;;;;;;;;;6.07;100.00;98353.84;5087527;28;19931;-49
2022/09/20 23:38:24;;;;;;;;;;;;;;;6.10;100.00;98353.72;5089297;28;19924;-47
2022/09/20 23:40:53;;;;;;;;;;;;;;;5.91;100.00;98358.00;5089473;28;19934;-47
2022/09/20 23:43:20;;;;;;;;;;;;;;;5.81;100.00;98359.25;5069465;28;19931;-50
2022/09/20 23:45:47;;;;;;;;;;;;;;;5.80;100.00;98356.69;5088831;28;20612;-47
2022/09/20 23:48:14;;;;;;;;;;;;;;;5.77;100.00;98360.28;5089078;28;19946;-47
2022/09/20 23:50:43;;;;;;;;;;;;;;;5.72;100.00;98362.25;5089332;28;20379;-50
2022/09/20 23:53:10;;;;;;;;;;;;;;;5.63;100.00;98361.75;5049625;28;19924;-46
2022/09/20 23:55:37;;;;;;;;;;;;;;;5.80;100.00;98365.41;5082299;28;19931;-48
2022/09/20 23:58:05;;;;;;;;;;;;;;;5.83;100.00;98362.66;5087941;28;19924;-48
